sensor_id;sensor_type;location;lat;lon;timestamp;temperature;humidity
32201;DHT22;18701;45.588;5.288;2023-02-28T00:00:23;2.30;99.90
32201;DHT22;18701;45.588;5.288;2023-02-28T00:02:49;2.10;99.90
32201;DHT22;18701;45.588;5.288;2023-02-28T00:05:18;2.30;99.90
32201;DHT22;18701;45.588;5.288;2023-02-28T00:07:44;2.10;99.90
32201;DHT22;18701;45.588;5.288;2023-02-28T00:10:13;2.20;99.90
32201;DHT22;18701;45.588;5.288;2023-02-28T00:12:39;2.30;99.90
32201;DHT22;18701;45.588;5.288;2023-02-28T00:15:09;2.10;99.90
32201;DHT22;18701;45.588;5.288;2023-02-28T00:17:36;2.20;99.90
32201;DHT22;18701;45.588;5.288;2023-02-28T00:20:02;2.10;99.90
32201;DHT22;18701;45.588;5.288;2023-02-28T00:22:30;2.10;99.90
32201;DHT22;18701;45.588;5.288;2023-02-28T00:24:56;2.20;99.90
32201;DHT22;18701;45.588;5.288;2023-02-28T00:27:21;2.30;99.90
32201;DHT22;18701;45.588;5.288;2023-02-28T00:29:47;2.10;99.90
32201;DHT22;18701;45.588;5.288;2023-02-28T00:32:13;2.20;99.90
32201;DHT22;18701;45.588;5.288;2023-02-28T00:34:39;2.10;99.90
32201;DHT22;18701;45.588;5.288;2023-02-28T00:37:09;2.10;99.90
32201;DHT22;18701;45.588;5.288;2023-02-28T00:39:37;2.20;99.90
32201;DHT22;18701;45.588;5.288;2023-02-28T00:42:03;2.20;99.90
32201;DHT22;18701;45.588;5.288;2023-02-28T00:44:30;2.30;99.90
32201;DHT22;18701;45.588;5.288;2023-02-28T00:46:56;2.10;99.90
32201;DHT22;18701;45.588;5.288;2023-02-28T00:49:22;2.20;99.90
32201;DHT22;18701;45.588;5.288;2023-02-28T00:51:48;2.20;99.90
32201;DHT22;18701;45.588;5.288;2023-02-28T00:54:13;2.20;99.90
32201;DHT22;18701;45.588;5.288;2023-02-28T00:56:39;2.30;99.90
32201;DHT22;18701;45.588;5.288;2023-02-28T00:59:05;2.30;99.90
32201;DHT22;18701;45.588;5.288;2023-02-28T01:01:31;2.20;99.90
32201;DHT22;18701;45.588;5.288;2023-02-28T01:03:56;2.30;99.90
32201;DHT22;18701;45.588;5.288;2023-02-28T01:06:22;2.40;99.90
32201;DHT22;18701;45.588;5.288;2023-02-28T01:08:48;2.40;99.90
32201;DHT22;18701;45.588;5.288;2023-02-28T01:11:18;2.40;99.90
32201;DHT22;18701;45.588;5.288;2023-02-28T01:13:45;2.30;99.90
32201;DHT22;18701;45.588;5.288;2023-02-28T01:16:12;2.40;99.90
32201;DHT22;18701;45.588;5.288;2023-02-28T01:18:38;2.30;99.90
32201;DHT22;18701;45.588;5.288;2023-02-28T01:21:08;2.40;99.90
32201;DHT22;18701;45.588;5.288;2023-02-28T01:23:35;2.30;99.90
32201;DHT22;18701;45.588;5.288;2023-02-28T01:26:09;2.30;99.90
32201;DHT22;18701;45.588;5.288;2023-02-28T01:28:35;2.40;99.90
32201;DHT22;18701;45.588;5.288;2023-02-28T01:31:01;2.50;99.90
32201;DHT22;18701;45.588;5.288;2023-02-28T01:33:27;2.40;99.90
32201;DHT22;18701;45.588;5.288;2023-02-28T01:36:10;2.20;99.90
32201;DHT22;18701;45.588;5.288;2023-02-28T01:38:36;2.30;99.90
32201;DHT22;18701;45.588;5.288;2023-02-28T01:41:02;2.40;99.90
32201;DHT22;18701;45.588;5.288;2023-02-28T01:43:30;2.40;99.90
32201;DHT22;18701;45.588;5.288;2023-02-28T01:45:57;2.40;99.90
32201;DHT22;18701;45.588;5.288;2023-02-28T01:48:27;2.50;99.90
32201;DHT22;18701;45.588;5.288;2023-02-28T01:50:57;2.50;99.90
32201;DHT22;18701;45.588;5.288;2023-02-28T01:53:51;2.60;99.90
32201;DHT22;18701;45.588;5.288;2023-02-28T01:56:22;2.60;99.90
32201;DHT22;18701;45.588;5.288;2023-02-28T01:58:52;2.60;99.90
32201;DHT22;18701;45.588;5.288;2023-02-28T02:01:20;2.40;99.90
32201;DHT22;18701;45.588;5.288;2023-02-28T02:03:54;2.30;99.90
32201;DHT22;18701;45.588;5.288;2023-02-28T02:06:46;2.50;99.90
32201;DHT22;18701;45.588;5.288;2023-02-28T02:09:13;2.30;99.90
32201;DHT22;18701;45.588;5.288;2023-02-28T02:11:41;2.30;99.90
32201;DHT22;18701;45.588;5.288;2023-02-28T02:25:39;2.20;99.90
32201;DHT22;18701;45.588;5.288;2023-02-28T02:31:27;2.20;99.90
32201;DHT22;18701;45.588;5.288;2023-02-28T02:36:46;1.70;99.90
32201;DHT22;18701;45.588;5.288;2023-02-28T02:42:20;1.90;99.90
32201;DHT22;18701;45.588;5.288;2023-02-28T02:44:58;1.80;99.90
32201;DHT22;18701;45.588;5.288;2023-02-28T02:47:28;1.90;99.90
32201;DHT22;18701;45.588;5.288;2023-02-28T02:49:57;1.90;99.90
32201;DHT22;18701;45.588;5.288;2023-02-28T02:52:39;1.90;99.90
32201;DHT22;18701;45.588;5.288;2023-02-28T02:55:08;1.80;99.90
32201;DHT22;18701;45.588;5.288;2023-02-28T02:57:49;1.80;99.90
32201;DHT22;18701;45.588;5.288;2023-02-28T03:00:17;1.80;99.90
32201;DHT22;18701;45.588;5.288;2023-02-28T03:02:47;1.70;99.90
32201;DHT22;18701;45.588;5.288;2023-02-28T03:05:23;1.70;99.90
32201;DHT22;18701;45.588;5.288;2023-02-28T03:07:50;1.70;99.90
32201;DHT22;18701;45.588;5.288;2023-02-28T03:10:28;1.60;99.90
32201;DHT22;18701;45.588;5.288;2023-02-28T03:13:04;1.60;99.90
32201;DHT22;18701;45.588;5.288;2023-02-28T03:18:45;1.80;99.90
32201;DHT22;18701;45.588;5.288;2023-02-28T03:24:03;1.90;99.90
32201;DHT22;18701;45.588;5.288;2023-02-28T03:26:31;1.60;99.90
32201;DHT22;18701;45.588;5.288;2023-02-28T03:29:07;1.60;99.90
32201;DHT22;18701;45.588;5.288;2023-02-28T03:31:54;1.90;99.90
32201;DHT22;18701;45.588;5.288;2023-02-28T03:34:36;1.70;99.90
32201;DHT22;18701;45.588;5.288;2023-02-28T03:37:11;1.70;99.90
32201;DHT22;18701;45.588;5.288;2023-02-28T03:39:42;1.50;99.90
32201;DHT22;18701;45.588;5.288;2023-02-28T03:42:26;1.50;99.90
32201;DHT22;18701;45.588;5.288;2023-02-28T03:44:58;1.40;99.90
32201;DHT22;18701;45.588;5.288;2023-02-28T03:47:46;1.30;99.90
32201;DHT22;18701;45.588;5.288;2023-02-28T03:52:58;1.20;99.90
32201;DHT22;18701;45.588;5.288;2023-02-28T03:55:30;1.30;99.90
32201;DHT22;18701;45.588;5.288;2023-02-28T04:01:30;1.20;99.90
32201;DHT22;18701;45.588;5.288;2023-02-28T04:03:57;1.10;99.90
32201;DHT22;18701;45.588;5.288;2023-02-28T04:06:24;1.10;99.90
32201;DHT22;18701;45.588;5.288;2023-02-28T04:08:50;1.30;99.90
32201;DHT22;18701;45.588;5.288;2023-02-28T04:14:02;1.30;99.90
32201;DHT22;18701;45.588;5.288;2023-02-28T04:16:29;1.20;99.90
32201;DHT22;18701;45.588;5.288;2023-02-28T04:18:55;1.00;99.90
32201;DHT22;18701;45.588;5.288;2023-02-28T04:21:36;0.90;99.90
32201;DHT22;18701;45.588;5.288;2023-02-28T04:24:10;1.00;99.90
32201;DHT22;18701;45.588;5.288;2023-02-28T04:26:40;0.80;99.90
32201;DHT22;18701;45.588;5.288;2023-02-28T04:29:06;1.10;99.90
32201;DHT22;18701;45.588;5.288;2023-02-28T04:31:33;1.30;99.90
32201;DHT22;18701;45.588;5.288;2023-02-28T04:33:59;1.10;99.90
32201;DHT22;18701;45.588;5.288;2023-02-28T04:36:25;1.40;99.90
32201;DHT22;18701;45.588;5.288;2023-02-28T04:38:51;1.10;99.90
32201;DHT22;18701;45.588;5.288;2023-02-28T04:41:18;1.00;99.90
32201;DHT22;18701;45.588;5.288;2023-02-28T04:43:44;1.00;99.90
32201;DHT22;18701;45.588;5.288;2023-02-28T04:46:09;1.30;99.90
32201;DHT22;18701;45.588;5.288;2023-02-28T04:48:37;1.10;99.90
32201;DHT22;18701;45.588;5.288;2023-02-28T04:51:08;1.00;99.90
32201;DHT22;18701;45.588;5.288;2023-02-28T04:53:36;0.80;99.90
32201;DHT22;18701;45.588;5.288;2023-02-28T04:56:02;1.10;99.90
32201;DHT22;18701;45.588;5.288;2023-02-28T04:58:28;0.90;99.90
32201;DHT22;18701;45.588;5.288;2023-02-28T05:00:54;1.20;99.90
32201;DHT22;18701;45.588;5.288;2023-02-28T05:03:20;0.90;99.90
32201;DHT22;18701;45.588;5.288;2023-02-28T05:05:47;1.00;99.90
32201;DHT22;18701;45.588;5.288;2023-02-28T05:08:13;0.80;99.90
32201;DHT22;18701;45.588;5.288;2023-02-28T05:10:39;0.90;99.90
32201;DHT22;18701;45.588;5.288;2023-02-28T05:13:04;1.00;99.90
32201;DHT22;18701;45.588;5.288;2023-02-28T05:15:30;1.00;99.90
32201;DHT22;18701;45.588;5.288;2023-02-28T05:17:56;1.10;99.90
32201;DHT22;18701;45.588;5.288;2023-02-28T05:20:21;1.00;99.90
32201;DHT22;18701;45.588;5.288;2023-02-28T05:22:47;1.00;99.90
32201;DHT22;18701;45.588;5.288;2023-02-28T05:25:18;1.20;99.90
32201;DHT22;18701;45.588;5.288;2023-02-28T05:27:44;1.30;99.90
32201;DHT22;18701;45.588;5.288;2023-02-28T05:30:10;1.10;99.90
32201;DHT22;18701;45.588;5.288;2023-02-28T05:32:37;0.80;99.90
32201;DHT22;18701;45.588;5.288;2023-02-28T05:35:03;0.90;99.90
32201;DHT22;18701;45.588;5.288;2023-02-28T05:37:29;0.90;99.90
32201;DHT22;18701;45.588;5.288;2023-02-28T05:39:54;0.80;99.90
32201;DHT22;18701;45.588;5.288;2023-02-28T05:42:20;0.80;99.90
32201;DHT22;18701;45.588;5.288;2023-02-28T05:44:46;0.90;99.90
32201;DHT22;18701;45.588;5.288;2023-02-28T05:47:12;0.90;99.90
32201;DHT22;18701;45.588;5.288;2023-02-28T05:49:41;1.00;99.90
32201;DHT22;18701;45.588;5.288;2023-02-28T05:52:06;0.80;99.90
32201;DHT22;18701;45.588;5.288;2023-02-28T05:54:32;1.00;99.90
32201;DHT22;18701;45.588;5.288;2023-02-28T05:56:58;0.90;99.90
32201;DHT22;18701;45.588;5.288;2023-02-28T05:59:23;0.90;99.90
32201;DHT22;18701;45.588;5.288;2023-02-28T06:01:49;0.90;99.90
32201;DHT22;18701;45.588;5.288;2023-02-28T06:04:17;0.90;99.90
32201;DHT22;18701;45.588;5.288;2023-02-28T06:06:45;0.80;99.90
32201;DHT22;18701;45.588;5.288;2023-02-28T06:09:11;0.60;99.90
32201;DHT22;18701;45.588;5.288;2023-02-28T06:11:37;0.40;99.90
32201;DHT22;18701;45.588;5.288;2023-02-28T06:14:04;0.40;99.90
32201;DHT22;18701;45.588;5.288;2023-02-28T06:16:32;0.70;99.90
32201;DHT22;18701;45.588;5.288;2023-02-28T06:19:01;0.80;99.90
32201;DHT22;18701;45.588;5.288;2023-02-28T06:21:27;0.60;99.90
32201;DHT22;18701;45.588;5.288;2023-02-28T06:23:54;0.50;99.90
32201;DHT22;18701;45.588;5.288;2023-02-28T06:26:19;0.60;99.90
32201;DHT22;18701;45.588;5.288;2023-02-28T06:28:46;0.50;99.90
32201;DHT22;18701;45.588;5.288;2023-02-28T06:31:15;0.80;99.90
32201;DHT22;18701;45.588;5.288;2023-02-28T06:33:42;0.60;99.90
32201;DHT22;18701;45.588;5.288;2023-02-28T06:36:09;0.60;99.90
32201;DHT22;18701;45.588;5.288;2023-02-28T06:38:35;0.50;99.90
32201;DHT22;18701;45.588;5.288;2023-02-28T06:41:01;0.70;99.90
32201;DHT22;18701;45.588;5.288;2023-02-28T06:43:30;0.70;99.90
32201;DHT22;18701;45.588;5.288;2023-02-28T06:45:57;0.80;99.90
32201;DHT22;18701;45.588;5.288;2023-02-28T06:48:25;0.70;99.90
32201;DHT22;18701;45.588;5.288;2023-02-28T06:50:52;0.70;99.90
32201;DHT22;18701;45.588;5.288;2023-02-28T06:53:18;0.70;99.90
32201;DHT22;18701;45.588;5.288;2023-02-28T06:55:43;0.60;99.90
32201;DHT22;18701;45.588;5.288;2023-02-28T06:58:09;0.40;99.90
32201;DHT22;18701;45.588;5.288;2023-02-28T07:00:45;0.50;99.90
32201;DHT22;18701;45.588;5.288;2023-02-28T07:03:12;0.70;99.90
32201;DHT22;18701;45.588;5.288;2023-02-28T07:05:39;0.60;99.90
32201;DHT22;18701;45.588;5.288;2023-02-28T07:08:05;0.40;99.90
32201;DHT22;18701;45.588;5.288;2023-02-28T07:10:33;0.30;99.90
32201;DHT22;18701;45.588;5.288;2023-02-28T07:12:59;0.40;99.90
32201;DHT22;18701;45.588;5.288;2023-02-28T07:15:25;0.40;99.90
32201;DHT22;18701;45.588;5.288;2023-02-28T07:17:51;0.50;99.90
32201;DHT22;18701;45.588;5.288;2023-02-28T07:20:17;0.30;99.90
32201;DHT22;18701;45.588;5.288;2023-02-28T07:22:43;0.30;99.90
32201;DHT22;18701;45.588;5.288;2023-02-28T07:25:08;0.20;99.90
32201;DHT22;18701;45.588;5.288;2023-02-28T07:27:34;0.30;99.90
32201;DHT22;18701;45.588;5.288;2023-02-28T07:30:00;0.40;99.90
32201;DHT22;18701;45.588;5.288;2023-02-28T07:32:27;0.50;99.90
32201;DHT22;18701;45.588;5.288;2023-02-28T07:34:53;0.60;99.90
32201;DHT22;18701;45.588;5.288;2023-02-28T07:37:20;0.60;99.90
32201;DHT22;18701;45.588;5.288;2023-02-28T07:39:45;0.50;99.90
32201;DHT22;18701;45.588;5.288;2023-02-28T07:42:11;0.50;99.90
32201;DHT22;18701;45.588;5.288;2023-02-28T07:44:41;0.50;99.90
32201;DHT22;18701;45.588;5.288;2023-02-28T07:47:10;0.30;99.90
32201;DHT22;18701;45.588;5.288;2023-02-28T07:49:37;0.30;99.90
32201;DHT22;18701;45.588;5.288;2023-02-28T07:52:04;0.60;99.90
32201;DHT22;18701;45.588;5.288;2023-02-28T07:54:29;0.70;99.90
32201;DHT22;18701;45.588;5.288;2023-02-28T07:56:55;0.70;99.90
32201;DHT22;18701;45.588;5.288;2023-02-28T07:59:21;0.70;99.90
32201;DHT22;18701;45.588;5.288;2023-02-28T08:01:46;0.70;99.90
32201;DHT22;18701;45.588;5.288;2023-02-28T08:04:14;0.70;99.90
32201;DHT22;18701;45.588;5.288;2023-02-28T08:06:40;0.70;99.90
32201;DHT22;18701;45.588;5.288;2023-02-28T08:09:06;1.00;99.90
32201;DHT22;18701;45.588;5.288;2023-02-28T08:11:31;0.50;99.90
32201;DHT22;18701;45.588;5.288;2023-02-28T08:13:57;0.40;99.90
32201;DHT22;18701;45.588;5.288;2023-02-28T08:16:22;0.70;99.90
32201;DHT22;18701;45.588;5.288;2023-02-28T08:18:52;0.80;99.90
32201;DHT22;18701;45.588;5.288;2023-02-28T08:21:19;0.70;99.90
32201;DHT22;18701;45.588;5.288;2023-02-28T08:23:47;0.40;99.90
32201;DHT22;18701;45.588;5.288;2023-02-28T08:26:13;0.20;99.90
32201;DHT22;18701;45.588;5.288;2023-02-28T08:28:39;0.50;99.90
32201;DHT22;18701;45.588;5.288;2023-02-28T08:31:12;0.60;99.90
32201;DHT22;18701;45.588;5.288;2023-02-28T08:33:40;1.10;99.90
32201;DHT22;18701;45.588;5.288;2023-02-28T08:36:07;0.90;99.90
32201;DHT22;18701;45.588;5.288;2023-02-28T08:38:33;0.90;99.90
32201;DHT22;18701;45.588;5.288;2023-02-28T08:41:00;1.10;99.90
32201;DHT22;18701;45.588;5.288;2023-02-28T08:43:27;1.10;99.90
32201;DHT22;18701;45.588;5.288;2023-02-28T08:45:53;1.20;99.90
32201;DHT22;18701;45.588;5.288;2023-02-28T08:48:19;1.10;99.90
32201;DHT22;18701;45.588;5.288;2023-02-28T08:53:23;1.20;99.90
32201;DHT22;18701;45.588;5.288;2023-02-28T08:55:56;1.20;99.90
32201;DHT22;18701;45.588;5.288;2023-02-28T08:58:22;1.40;99.90
32201;DHT22;18701;45.588;5.288;2023-02-28T09:00:47;1.30;99.90
32201;DHT22;18701;45.588;5.288;2023-02-28T09:03:13;1.60;99.90
32201;DHT22;18701;45.588;5.288;2023-02-28T09:05:38;1.90;99.90
32201;DHT22;18701;45.588;5.288;2023-02-28T09:08:04;2.20;99.90
32201;DHT22;18701;45.588;5.288;2023-02-28T09:10:30;2.40;99.90
32201;DHT22;18701;45.588;5.288;2023-02-28T09:12:55;2.00;99.90
32201;DHT22;18701;45.588;5.288;2023-02-28T09:15:21;2.30;99.90
32201;DHT22;18701;45.588;5.288;2023-02-28T09:17:46;2.10;99.90
32201;DHT22;18701;45.588;5.288;2023-02-28T09:20:12;2.00;99.90
32201;DHT22;18701;45.588;5.288;2023-02-28T09:22:37;1.80;99.90
32201;DHT22;18701;45.588;5.288;2023-02-28T09:25:04;1.90;99.90
32201;DHT22;18701;45.588;5.288;2023-02-28T09:27:30;2.00;99.90
32201;DHT22;18701;45.588;5.288;2023-02-28T09:29:55;2.20;99.90
32201;DHT22;18701;45.588;5.288;2023-02-28T09:32:21;2.40;99.90
32201;DHT22;18701;45.588;5.288;2023-02-28T09:34:46;2.20;99.90
32201;DHT22;18701;45.588;5.288;2023-02-28T09:37:12;2.40;99.90
32201;DHT22;18701;45.588;5.288;2023-02-28T09:39:37;2.60;99.90
32201;DHT22;18701;45.588;5.288;2023-02-28T09:42:03;2.70;99.90
32201;DHT22;18701;45.588;5.288;2023-02-28T09:44:38;2.60;99.90
32201;DHT22;18701;45.588;5.288;2023-02-28T09:49:52;3.00;99.90
32201;DHT22;18701;45.588;5.288;2023-02-28T09:52:20;3.20;99.90
32201;DHT22;18701;45.588;5.288;2023-02-28T09:54:47;3.10;99.90
32201;DHT22;18701;45.588;5.288;2023-02-28T10:05:22;3.70;99.90
32201;DHT22;18701;45.588;5.288;2023-02-28T10:08:02;3.60;99.90
32201;DHT22;18701;45.588;5.288;2023-02-28T10:10:36;3.90;99.90
32201;DHT22;18701;45.588;5.288;2023-02-28T10:13:06;4.20;99.90
32201;DHT22;18701;45.588;5.288;2023-02-28T10:15:37;3.90;99.90
32201;DHT22;18701;45.588;5.288;2023-02-28T10:18:06;4.20;99.90
32201;DHT22;18701;45.588;5.288;2023-02-28T10:20:39;3.60;99.90
32201;DHT22;18701;45.588;5.288;2023-02-28T10:23:21;3.70;99.90
32201;DHT22;18701;45.588;5.288;2023-02-28T10:26:00;3.70;99.90
32201;DHT22;18701;45.588;5.288;2023-02-28T10:28:29;3.60;99.90
32201;DHT22;18701;45.588;5.288;2023-02-28T10:30:56;3.40;99.90
32201;DHT22;18701;45.588;5.288;2023-02-28T10:33:30;4.00;99.90
32201;DHT22;18701;45.588;5.288;2023-02-28T10:35:56;4.60;99.90
32201;DHT22;18701;45.588;5.288;2023-02-28T10:38:41;3.80;99.90
32201;DHT22;18701;45.588;5.288;2023-02-28T10:41:10;3.80;99.90
32201;DHT22;18701;45.588;5.288;2023-02-28T10:43:37;4.00;99.90
32201;DHT22;18701;45.588;5.288;2023-02-28T10:48:38;4.00;99.90
32201;DHT22;18701;45.588;5.288;2023-02-28T10:51:07;4.20;99.90
32201;DHT22;18701;45.588;5.288;2023-02-28T10:53:37;5.00;99.90
32201;DHT22;18701;45.588;5.288;2023-02-28T11:03:43;5.10;99.90
32201;DHT22;18701;45.588;5.288;2023-02-28T11:06:16;5.40;99.90
32201;DHT22;18701;45.588;5.288;2023-02-28T11:08:48;5.20;99.90
32201;DHT22;18701;45.588;5.288;2023-02-28T11:11:14;5.10;99.90
32201;DHT22;18701;45.588;5.288;2023-02-28T11:13:42;5.10;99.90
32201;DHT22;18701;45.588;5.288;2023-02-28T11:16:11;5.70;99.90
32201;DHT22;18701;45.588;5.288;2023-02-28T11:18:54;5.70;99.30
32201;DHT22;18701;45.588;5.288;2023-02-28T11:21:35;5.50;99.50
32201;DHT22;18701;45.588;5.288;2023-02-28T11:24:28;6.30;99.10
32201;DHT22;18701;45.588;5.288;2023-02-28T11:26:54;5.80;98.30
32201;DHT22;18701;45.588;5.288;2023-02-28T11:34:34;5.00;99.90
32201;DHT22;18701;45.588;5.288;2023-02-28T11:37:01;5.20;99.60
32201;DHT22;18701;45.588;5.288;2023-02-28T11:39:34;5.10;99.20
32201;DHT22;18701;45.588;5.288;2023-02-28T11:44:47;4.80;99.90
32201;DHT22;18701;45.588;5.288;2023-02-28T11:50:40;5.10;99.60
32201;DHT22;18701;45.588;5.288;2023-02-28T11:56:41;5.10;99.90
32201;DHT22;18701;45.588;5.288;2023-02-28T12:04:44;5.40;99.80
32201;DHT22;18701;45.588;5.288;2023-02-28T12:07:22;5.10;99.90
32201;DHT22;18701;45.588;5.288;2023-02-28T12:21:46;4.90;99.90
32201;DHT22;18701;45.588;5.288;2023-02-28T12:26:49;4.50;99.90
32201;DHT22;18701;45.588;5.288;2023-02-28T12:29:43;4.60;99.90
32201;DHT22;18701;45.588;5.288;2023-02-28T12:32:19;4.80;99.90
32201;DHT22;18701;45.588;5.288;2023-02-28T12:34:54;4.60;99.90
32201;DHT22;18701;45.588;5.288;2023-02-28T12:37:28;4.90;99.90
32201;DHT22;18701;45.588;5.288;2023-02-28T12:40:01;4.90;99.90
32201;DHT22;18701;45.588;5.288;2023-02-28T12:42:33;5.30;99.90
32201;DHT22;18701;45.588;5.288;2023-02-28T12:45:07;5.00;99.90
32201;DHT22;18701;45.588;5.288;2023-02-28T12:47:37;5.10;99.90
32201;DHT22;18701;45.588;5.288;2023-02-28T12:50:06;5.10;99.90
32201;DHT22;18701;45.588;5.288;2023-02-28T12:52:46;4.80;99.90
32201;DHT22;18701;45.588;5.288;2023-02-28T12:55:31;4.70;99.90
32201;DHT22;18701;45.588;5.288;2023-02-28T13:00:43;4.90;99.90
32201;DHT22;18701;45.588;5.288;2023-02-28T13:11:32;5.10;99.90
32201;DHT22;18701;45.588;5.288;2023-02-28T13:14:00;5.30;99.90
32201;DHT22;18701;45.588;5.288;2023-02-28T13:16:26;6.00;99.90
32201;DHT22;18701;45.588;5.288;2023-02-28T13:18:52;6.00;99.70
32201;DHT22;18701;45.588;5.288;2023-02-28T13:21:42;5.30;99.90
32201;DHT22;18701;45.588;5.288;2023-02-28T13:24:09;5.60;99.60
32201;DHT22;18701;45.588;5.288;2023-02-28T13:34:27;5.50;99.60
32201;DHT22;18701;45.588;5.288;2023-02-28T13:58:23;10.20;92.40
32201;DHT22;18701;45.588;5.288;2023-02-28T14:04:12;8.90;93.60
32201;DHT22;18701;45.588;5.288;2023-02-28T14:06:30;9.00;93.30
32201;DHT22;18701;45.588;5.288;2023-02-28T14:09:27;8.20;94.10
32201;DHT22;18701;45.588;5.288;2023-02-28T14:11:52;8.10;94.70
32201;DHT22;18701;45.588;5.288;2023-02-28T14:17:17;8.00;95.00
32201;DHT22;18701;45.588;5.288;2023-02-28T14:19:46;8.20;95.00
32201;DHT22;18701;45.588;5.288;2023-02-28T14:30:56;14.90;84.90
32201;DHT22;18701;45.588;5.288;2023-02-28T14:36:24;12.90;82.30
32201;DHT22;18701;45.588;5.288;2023-02-28T14:38:54;12.10;83.50
32201;DHT22;18701;45.588;5.288;2023-02-28T14:41:31;12.70;84.50
32201;DHT22;18701;45.588;5.288;2023-02-28T14:43:59;10.30;86.40
32201;DHT22;18701;45.588;5.288;2023-02-28T14:46:37;8.20;90.30
32201;DHT22;18701;45.588;5.288;2023-02-28T14:49:05;8.80;90.90
32201;DHT22;18701;45.588;5.288;2023-02-28T14:51:33;8.60;91.30
32201;DHT22;18701;45.588;5.288;2023-02-28T14:54:01;8.40;91.80
32201;DHT22;18701;45.588;5.288;2023-02-28T14:56:35;7.80;92.60
32201;DHT22;18701;45.588;5.288;2023-02-28T14:59:01;7.00;92.80
32201;DHT22;18701;45.588;5.288;2023-02-28T15:01:30;8.60;91.40
32201;DHT22;18701;45.588;5.288;2023-02-28T15:04:03;8.10;92.80
32201;DHT22;18701;45.588;5.288;2023-02-28T15:06:29;7.50;92.70
32201;DHT22;18701;45.588;5.288;2023-02-28T15:09:15;6.80;93.50
32201;DHT22;18701;45.588;5.288;2023-02-28T15:11:41;6.60;95.10
32201;DHT22;18701;45.588;5.288;2023-02-28T15:14:12;6.80;94.90
32201;DHT22;18701;45.588;5.288;2023-02-28T15:16:41;6.10;95.20
32201;DHT22;18701;45.588;5.288;2023-02-28T15:22:17;5.70;96.40
32201;DHT22;18701;45.588;5.288;2023-02-28T15:24:47;5.60;97.00
32201;DHT22;18701;45.588;5.288;2023-02-28T15:27:31;5.80;97.30
32201;DHT22;18701;45.588;5.288;2023-02-28T15:30:06;5.80;97.40
32201;DHT22;18701;45.588;5.288;2023-02-28T15:32:36;5.60;97.70
32201;DHT22;18701;45.588;5.288;2023-02-28T15:40:27;5.20;99.10
32201;DHT22;18701;45.588;5.288;2023-02-28T15:43:18;5.00;98.80
32201;DHT22;18701;45.588;5.288;2023-02-28T15:45:50;5.00;99.40
32201;DHT22;18701;45.588;5.288;2023-02-28T15:48:28;5.00;99.40
32201;DHT22;18701;45.588;5.288;2023-02-28T15:51:16;5.00;99.10
32201;DHT22;18701;45.588;5.288;2023-02-28T15:54:02;5.00;99.40
32201;DHT22;18701;45.588;5.288;2023-02-28T15:56:47;4.90;99.40
32201;DHT22;18701;45.588;5.288;2023-02-28T15:59:33;5.10;99.50
32201;DHT22;18701;45.588;5.288;2023-02-28T16:04:29;4.90;99.90
32201;DHT22;18701;45.588;5.288;2023-02-28T16:07:00;4.90;99.90
32201;DHT22;18701;45.588;5.288;2023-02-28T16:09:26;4.60;99.90
32201;DHT22;18701;45.588;5.288;2023-02-28T16:11:55;4.70;99.90
32201;DHT22;18701;45.588;5.288;2023-02-28T16:14:25;4.70;99.90
32201;DHT22;18701;45.588;5.288;2023-02-28T16:17:07;4.60;99.90
32201;DHT22;18701;45.588;5.288;2023-02-28T16:19:34;4.90;99.90
32201;DHT22;18701;45.588;5.288;2023-02-28T16:22:00;4.50;99.90
32201;DHT22;18701;45.588;5.288;2023-02-28T16:24:26;4.50;99.90
32201;DHT22;18701;45.588;5.288;2023-02-28T16:26:53;4.50;99.90
32201;DHT22;18701;45.588;5.288;2023-02-28T16:29:35;4.40;99.90
32201;DHT22;18701;45.588;5.288;2023-02-28T16:32:04;4.50;99.90
32201;DHT22;18701;45.588;5.288;2023-02-28T16:34:30;4.60;99.90
32201;DHT22;18701;45.588;5.288;2023-02-28T16:36:56;4.30;99.90
32201;DHT22;18701;45.588;5.288;2023-02-28T16:39:21;4.20;99.90
32201;DHT22;18701;45.588;5.288;2023-02-28T16:41:48;4.30;99.90
32201;DHT22;18701;45.588;5.288;2023-02-28T16:44:27;4.40;99.90
32201;DHT22;18701;45.588;5.288;2023-02-28T16:46:53;4.50;99.90
32201;DHT22;18701;45.588;5.288;2023-02-28T16:49:19;4.50;99.90
32201;DHT22;18701;45.588;5.288;2023-02-28T16:51:44;4.60;99.90
32201;DHT22;18701;45.588;5.288;2023-02-28T16:54:10;4.40;99.90
32201;DHT22;18701;45.588;5.288;2023-02-28T16:56:35;4.20;99.90
32201;DHT22;18701;45.588;5.288;2023-02-28T16:59:02;4.20;99.90
32201;DHT22;18701;45.588;5.288;2023-02-28T17:01:28;4.10;99.90
32201;DHT22;18701;45.588;5.288;2023-02-28T17:03:54;4.20;99.90
32201;DHT22;18701;45.588;5.288;2023-02-28T17:06:25;4.30;99.90
32201;DHT22;18701;45.588;5.288;2023-02-28T17:08:53;4.30;99.90
32201;DHT22;18701;45.588;5.288;2023-02-28T17:11:20;4.00;99.90
32201;DHT22;18701;45.588;5.288;2023-02-28T17:13:46;4.20;99.90
32201;DHT22;18701;45.588;5.288;2023-02-28T17:16:30;4.10;99.90
32201;DHT22;18701;45.588;5.288;2023-02-28T17:19:00;4.10;99.90
32201;DHT22;18701;45.588;5.288;2023-02-28T17:21:27;4.00;99.90
32201;DHT22;18701;45.588;5.288;2023-02-28T17:23:53;4.00;99.90
32201;DHT22;18701;45.588;5.288;2023-02-28T17:26:20;3.90;99.90
32201;DHT22;18701;45.588;5.288;2023-02-28T17:28:48;4.00;99.90
32201;DHT22;18701;45.588;5.288;2023-02-28T17:31:13;4.00;99.90
32201;DHT22;18701;45.588;5.288;2023-02-28T17:33:39;4.00;99.90
32201;DHT22;18701;45.588;5.288;2023-02-28T17:36:05;4.00;99.90
32201;DHT22;18701;45.588;5.288;2023-02-28T17:38:31;4.00;99.90
32201;DHT22;18701;45.588;5.288;2023-02-28T17:40:57;3.90;99.90
32201;DHT22;18701;45.588;5.288;2023-02-28T17:43:24;3.70;99.90
32201;DHT22;18701;45.588;5.288;2023-02-28T17:45:50;3.80;99.90
32201;DHT22;18701;45.588;5.288;2023-02-28T17:48:16;3.80;99.90
32201;DHT22;18701;45.588;5.288;2023-02-28T17:50:42;3.80;99.90
32201;DHT22;18701;45.588;5.288;2023-02-28T17:53:07;3.90;99.90
32201;DHT22;18701;45.588;5.288;2023-02-28T17:55:34;3.80;99.90
32201;DHT22;18701;45.588;5.288;2023-02-28T17:58:00;3.80;99.90
32201;DHT22;18701;45.588;5.288;2023-02-28T18:00:26;3.80;99.90
32201;DHT22;18701;45.588;5.288;2023-02-28T18:02:52;3.60;99.90
32201;DHT22;18701;45.588;5.288;2023-02-28T18:05:18;3.70;99.90
32201;DHT22;18701;45.588;5.288;2023-02-28T18:07:43;3.70;99.90
32201;DHT22;18701;45.588;5.288;2023-02-28T18:10:14;3.70;99.90
32201;DHT22;18701;45.588;5.288;2023-02-28T18:12:41;3.80;99.90
32201;DHT22;18701;45.588;5.288;2023-02-28T18:15:07;3.70;99.90
32201;DHT22;18701;45.588;5.288;2023-02-28T18:17:33;3.70;99.90
32201;DHT22;18701;45.588;5.288;2023-02-28T18:19:58;3.80;99.90
32201;DHT22;18701;45.588;5.288;2023-02-28T18:22:24;3.70;99.90
32201;DHT22;18701;45.588;5.288;2023-02-28T18:24:50;3.70;99.90
32201;DHT22;18701;45.588;5.288;2023-02-28T18:27:16;3.60;99.90
32201;DHT22;18701;45.588;5.288;2023-02-28T18:29:41;3.70;99.90
32201;DHT22;18701;45.588;5.288;2023-02-28T18:32:07;3.60;99.90
32201;DHT22;18701;45.588;5.288;2023-02-28T18:34:34;3.50;99.90
32201;DHT22;18701;45.588;5.288;2023-02-28T18:36:59;3.60;99.90
32201;DHT22;18701;45.588;5.288;2023-02-28T18:39:25;3.70;99.90